createdAt,value
2018-07-23T00:00:23.368Z,20.31
2018-07-23T00:02:52.351Z,20.37
2018-07-23T00:05:21.579Z,20.49
2018-07-23T00:07:50.522Z,20.45
2018-07-23T00:10:19.943Z,20.45
2018-07-23T00:12:50.019Z,20.31
2018-07-23T00:15:19.086Z,20.23
2018-07-23T00:17:48.401Z,20.15
2018-07-23T00:20:17.584Z,20.35
2018-07-23T00:22:46.824Z,19.97
2018-07-23T00:25:16.595Z,20.29
2018-07-23T00:27:45.815Z,20.31
2018-07-23T00:30:14.793Z,20.24
2018-07-23T00:32:43.889Z,20.11
2018-07-23T00:35:13.004Z,20.03
2018-07-23T00:37:42.328Z,20.11
2018-07-23T00:40:12.400Z,20.15
2018-07-23T00:42:41.355Z,20.22
2018-07-23T00:45:10.807Z,20.21
2018-07-23T00:47:40.198Z,20.29
2018-07-23T00:50:09.703Z,20.22
2018-07-23T00:52:39.229Z,20.28
2018-07-23T00:55:08.485Z,20.29
2018-07-23T00:57:38.008Z,20.19
2018-07-23T01:00:08.222Z,20.15
2018-07-23T01:02:37.324Z,20.22
2018-07-23T01:05:10.006Z,20.07
2018-07-23T01:07:39.102Z,20.05
2018-07-23T01:10:08.100Z,20.04
2018-07-23T01:12:37.112Z,20.08
2018-07-23T01:15:09.443Z,20.06
2018-07-23T01:17:38.436Z,20.06
2018-07-23T01:20:07.634Z,20.04
2018-07-23T01:22:37.529Z,19.99
2018-07-23T01:25:08.306Z,19.83
2018-07-23T01:27:37.857Z,19.89
2018-07-23T01:30:08.133Z,19.81
2018-07-23T01:32:37.121Z,19.87
2018-07-23T01:35:07.798Z,19.77
2018-07-23T01:37:36.947Z,19.68
2018-07-23T01:40:09.526Z,19.59
2018-07-23T01:42:38.616Z,19.61
2018-07-23T01:45:07.896Z,19.57
2018-07-23T01:47:37.699Z,19.62
2018-07-23T01:50:08.278Z,19.58
2018-07-23T01:52:37.718Z,19.44
2018-07-23T01:55:08.209Z,19.44
2018-07-23T01:57:37.503Z,19.46
2018-07-23T02:00:08.312Z,19.47
2018-07-23T02:02:37.430Z,19.42
2018-07-23T02:05:07.745Z,19.49
2018-07-23T02:07:36.722Z,19.17
2018-07-23T02:10:07.377Z,19.14
2018-07-23T02:12:36.417Z,19.13
2018-07-23T02:15:09.553Z,19.27
2018-07-23T02:17:39.221Z,19.24
2018-07-23T02:20:08.769Z,19.16
2018-07-23T02:22:37.856Z,18.91
2018-07-23T02:25:08.998Z,18.99
2018-07-23T02:27:37.954Z,18.89
2018-07-23T02:30:08.134Z,19.06
2018-07-23T02:32:37.119Z,18.91
2018-07-23T02:35:07.673Z,18.92
2018-07-23T02:37:36.892Z,18.95
2018-07-23T02:40:07.790Z,18.95
2018-07-23T02:42:36.875Z,18.94
2018-07-23T02:45:07.433Z,18.71
2018-07-23T02:47:36.633Z,18.53
2018-07-23T02:50:07.962Z,18.72
2018-07-23T02:52:38.246Z,18.57
2018-07-23T02:55:08.185Z,18.67
2018-07-23T02:57:37.891Z,18.78
2018-07-23T03:00:08.035Z,18.78
2018-07-23T03:02:37.301Z,18.66
2018-07-23T03:05:07.766Z,18.83
2018-07-23T03:07:37.050Z,18.84
2018-07-23T03:10:09.051Z,18.71
2018-07-23T03:12:38.288Z,18.62
2018-07-23T03:15:09.329Z,18.49
2018-07-23T03:17:39.138Z,18.44
2018-07-23T03:20:08.674Z,18.60
2018-07-23T03:22:37.749Z,18.55
2018-07-23T03:25:08.018Z,18.53
2018-07-23T03:27:37.081Z,18.52
2018-07-23T03:30:07.850Z,18.60
2018-07-23T03:32:36.844Z,18.63
2018-07-23T03:35:09.178Z,18.56
2018-07-23T03:37:38.133Z,18.57
2018-07-23T03:40:08.124Z,18.56
2018-07-23T03:42:37.843Z,18.54
2018-07-23T03:45:08.227Z,18.49
2018-07-23T03:47:37.173Z,18.57
2018-07-23T03:50:09.698Z,18.45
2018-07-23T03:52:38.777Z,18.50
2018-07-23T03:55:08.029Z,18.54
2018-07-23T03:57:37.262Z,18.51
2018-07-23T04:00:09.679Z,18.43
2018-07-23T04:02:38.677Z,18.42
2018-07-23T04:05:07.953Z,18.41
2018-07-23T04:07:37.033Z,18.43
2018-07-23T04:10:07.824Z,18.43
2018-07-23T04:12:36.838Z,18.41
2018-07-23T04:15:10.313Z,18.41
2018-07-23T04:17:39.273Z,18.35
2018-07-23T04:20:09.224Z,18.32
2018-07-23T04:22:38.162Z,18.22
2018-07-23T04:25:08.811Z,18.27
2018-07-23T04:27:37.887Z,18.30
2018-07-23T04:30:08.187Z,18.39
2018-07-23T04:32:37.207Z,18.45
2018-07-23T04:35:08.258Z,18.54
2018-07-23T04:37:37.346Z,18.60
2018-07-23T04:40:07.775Z,18.50
2018-07-23T04:42:36.841Z,18.59
2018-07-23T04:45:07.224Z,18.71
2018-07-23T04:47:36.372Z,18.65
2018-07-23T04:50:07.274Z,18.75
2018-07-23T04:52:36.769Z,18.84
2018-07-23T04:55:06.770Z,18.99
2018-07-23T04:57:35.938Z,19.19
2018-07-23T05:00:08.750Z,19.27
2018-07-23T05:02:37.800Z,19.42
2018-07-23T05:05:06.931Z,19.36
2018-07-23T05:07:35.993Z,19.52
2018-07-23T05:10:08.261Z,19.78
2018-07-23T05:12:37.974Z,19.87
2018-07-23T05:15:07.532Z,19.94
2018-07-23T05:17:37.030Z,19.74
2018-07-23T05:20:07.904Z,19.75
2018-07-23T05:22:37.008Z,19.82
2018-07-23T05:25:06.886Z,19.85
2018-07-23T05:27:36.145Z,19.81
2018-07-23T05:30:08.639Z,19.60
2018-07-23T05:32:37.578Z,19.62
2018-07-23T05:35:06.858Z,19.73
2018-07-23T05:37:36.091Z,19.65
2018-07-23T05:40:08.185Z,19.77
2018-07-23T05:42:37.257Z,19.79
2018-07-23T05:45:07.095Z,19.73
2018-07-23T05:47:36.182Z,19.89
2018-07-23T05:50:09.311Z,19.98
2018-07-23T05:52:38.284Z,19.94
2018-07-23T05:55:07.307Z,19.99
2018-07-23T05:57:36.355Z,20.09
2018-07-23T06:00:07.323Z,20.20
2018-07-23T06:02:36.291Z,20.35
2018-07-23T06:05:09.165Z,20.51
2018-07-23T06:07:38.453Z,20.60
2018-07-23T06:10:07.595Z,20.56
2018-07-23T06:12:37.597Z,20.37
2018-07-23T06:15:09.042Z,20.27
2018-07-23T06:17:38.204Z,20.27
2018-07-23T06:20:08.595Z,20.47
2018-07-23T06:22:38.827Z,20.76
2018-07-23T06:25:09.189Z,21.25
2018-07-23T06:27:38.303Z,20.90
2018-07-23T06:30:10.036Z,20.56
2018-07-23T06:32:39.680Z,20.51
2018-07-23T06:35:09.082Z,20.62
2018-07-23T06:37:38.206Z,20.61
2018-07-23T06:40:08.305Z,20.70
2018-07-23T06:42:37.298Z,20.82
2018-07-23T06:45:08.472Z,21.10
2018-07-23T06:47:37.719Z,21.12
2018-07-23T06:50:08.175Z,21.12
2018-07-23T06:52:37.654Z,21.20
2018-07-23T06:55:07.773Z,21.26
2018-07-23T06:57:36.835Z,21.38
2018-07-23T07:00:08.226Z,21.68
2018-07-23T07:02:37.301Z,21.77
2018-07-23T07:05:08.367Z,21.84
2018-07-23T07:07:37.631Z,22.26
2018-07-23T07:10:08.182Z,22.53
2018-07-23T07:12:37.124Z,23.17
2018-07-23T07:15:08.743Z,23.89
2018-07-23T07:17:37.909Z,25.49
2018-07-23T07:20:08.163Z,25.84
2018-07-23T07:22:37.507Z,24.16
2018-07-23T07:25:08.167Z,26.47
2018-07-23T07:27:37.266Z,26.08
2018-07-23T07:30:08.450Z,28.02
2018-07-23T07:32:37.714Z,26.24
2018-07-23T07:35:07.750Z,27.77
2018-07-23T07:37:37.037Z,28.54
2018-07-23T07:40:08.844Z,25.87
2018-07-23T07:42:38.108Z,26.49
2018-07-23T07:45:08.534Z,25.53
2018-07-23T07:47:37.497Z,26.51
2018-07-23T07:50:07.962Z,26.78
2018-07-23T07:52:37.543Z,24.80
2018-07-23T07:55:07.861Z,23.76
2018-07-23T07:57:36.825Z,23.67
2018-07-23T08:00:09.766Z,23.66
2018-07-23T08:02:39.075Z,23.42
2018-07-23T08:05:08.529Z,23.36
2018-07-23T08:07:37.724Z,23.69
2018-07-23T08:10:07.991Z,23.69
2018-07-23T08:12:37.464Z,23.73
2018-07-23T08:15:07.593Z,23.65
2018-07-23T08:17:36.666Z,24.00
2018-07-23T08:20:07.884Z,24.13
2018-07-23T08:22:37.150Z,24.45
2018-07-23T08:25:10.694Z,25.15
2018-07-23T08:27:39.827Z,25.05
2018-07-23T08:30:08.932Z,25.24
2018-07-23T08:32:38.199Z,26.01
2018-07-23T08:35:07.625Z,26.33
2018-07-23T08:37:37.034Z,26.35
2018-07-23T08:40:08.375Z,26.19
2018-07-23T08:42:38.261Z,26.80
2018-07-23T08:45:07.638Z,26.62
2018-07-23T08:47:36.869Z,26.27
2018-07-23T08:50:08.301Z,26.97
2018-07-23T08:52:37.517Z,26.84
2018-07-23T08:55:07.666Z,27.23
2018-07-23T08:57:36.961Z,27.04
2018-07-23T09:00:09.238Z,27.03
2018-07-23T09:02:38.317Z,26.45
2018-07-23T09:05:07.583Z,27.18
2018-07-23T09:07:37.415Z,27.02
2018-07-23T09:10:08.312Z,28.57
2018-07-23T09:12:37.554Z,28.88
2018-07-23T09:15:07.698Z,30.35
2018-07-23T09:17:36.994Z,31.45
2018-07-23T09:20:09.751Z,32.62
2018-07-23T09:22:38.856Z,33.12
2018-07-23T09:25:07.869Z,32.71
2018-07-23T09:27:37.535Z,33.27
2018-07-23T09:30:12.232Z,31.55
2018-07-23T09:32:42.739Z,32.31
2018-07-23T09:35:11.679Z,33.07
2018-07-23T09:37:41.626Z,32.54
2018-07-23T09:40:10.865Z,31.98
2018-07-23T09:42:39.839Z,31.79
2018-07-23T09:45:09.323Z,32.15
2018-07-23T09:47:38.451Z,32.39
2018-07-23T09:50:07.548Z,32.17
2018-07-23T09:52:36.847Z,30.20
2018-07-23T09:55:07.637Z,28.00
2018-07-23T09:57:36.777Z,30.08
2018-07-23T10:00:07.706Z,30.40
2018-07-23T10:02:37.000Z,31.73
2018-07-23T10:05:07.723Z,29.91
2018-07-23T10:07:36.807Z,28.66
2018-07-23T10:10:07.731Z,28.06
2018-07-23T10:12:36.838Z,28.03
2018-07-23T10:15:09.402Z,29.08
2018-07-23T10:17:38.537Z,28.35
2018-07-23T10:20:08.044Z,29.60
2018-07-23T10:22:37.342Z,28.57
2018-07-23T10:25:07.781Z,29.34
2018-07-23T10:27:37.056Z,29.31
2018-07-23T10:30:09.374Z,30.22
2018-07-23T10:32:39.060Z,31.11
2018-07-23T10:35:08.547Z,31.52
2018-07-23T10:37:38.240Z,33.67
2018-07-23T10:40:07.794Z,32.81
2018-07-23T10:42:37.098Z,32.00
2018-07-23T10:45:09.348Z,31.55
2018-07-23T10:47:38.521Z,31.82
2018-07-23T10:50:07.495Z,32.96
2018-07-23T10:52:37.849Z,33.54
2018-07-23T10:55:07.742Z,32.32
2018-07-23T10:57:36.866Z,31.61
2018-07-23T11:00:09.947Z,31.57
2018-07-23T11:02:39.895Z,31.32
2018-07-23T11:05:09.782Z,30.60
2018-07-23T11:07:38.758Z,28.67
2018-07-23T11:10:08.786Z,29.73
2018-07-23T11:12:38.333Z,28.60
2018-07-23T11:15:09.211Z,29.50
2018-07-23T11:17:38.544Z,29.62
2018-07-23T11:20:10.252Z,29.05
2018-07-23T11:22:39.801Z,28.91
2018-07-23T11:25:38.596Z,28.74
2018-07-23T11:27:38.286Z,27.96
2018-07-23T11:30:07.763Z,29.01
2018-07-23T11:32:37.286Z,29.25
2018-07-23T11:35:08.187Z,29.57
2018-07-23T11:37:37.323Z,29.77
2018-07-23T11:40:07.576Z,29.74
2018-07-23T11:42:36.997Z,29.16
2018-07-23T11:45:10.009Z,28.65
2018-07-23T11:47:39.336Z,28.26
2018-07-23T11:50:08.847Z,28.45
2018-07-23T11:52:38.238Z,27.97
2018-07-23T11:55:08.030Z,27.62
2018-07-23T11:57:37.190Z,28.27
2018-07-23T12:00:09.550Z,28.92
2018-07-23T12:02:38.867Z,28.92
2018-07-23T12:05:08.018Z,29.23
2018-07-23T12:07:37.523Z,29.63
2018-07-23T12:10:07.674Z,29.87
2018-07-23T12:12:37.390Z,29.86
2018-07-23T12:15:10.374Z,29.77
2018-07-23T12:17:39.393Z,29.14
2018-07-23T12:20:09.463Z,28.30
2018-07-23T12:22:38.831Z,29.22
2018-07-23T12:25:07.784Z,29.50
2018-07-23T12:27:36.896Z,29.36
2018-07-23T12:30:06.997Z,29.43
2018-07-23T12:32:36.001Z,29.23
2018-07-23T12:35:07.007Z,29.27
2018-07-23T12:37:36.273Z,29.46
2018-07-23T12:40:08.286Z,29.82
2018-07-23T12:42:37.306Z,29.24
2018-07-23T12:45:07.567Z,29.94
2018-07-23T12:47:36.702Z,29.86
2018-07-23T12:50:07.982Z,30.00
2018-07-23T12:52:37.419Z,30.10
2018-07-23T12:55:08.380Z,29.70
2018-07-23T12:57:37.668Z,29.19
2018-07-23T13:00:07.098Z,28.58
2018-07-23T13:02:36.583Z,28.95
2018-07-23T13:05:07.741Z,29.67
2018-07-23T13:07:37.043Z,29.33
2018-07-23T13:10:07.575Z,29.42
2018-07-23T13:12:36.657Z,29.87
2018-07-23T13:15:07.296Z,29.51
2018-07-23T13:17:36.353Z,29.08
2018-07-23T13:20:07.528Z,29.20
2018-07-23T13:22:37.003Z,29.38
2018-07-23T13:25:07.338Z,29.02
2018-07-23T13:27:36.639Z,29.33
2018-07-23T13:30:07.696Z,29.33
2018-07-23T13:32:36.849Z,28.38
2018-07-23T13:35:07.300Z,29.10
2018-07-23T13:37:36.381Z,29.29
2018-07-23T13:40:07.135Z,29.17
2018-07-23T13:42:36.834Z,28.93
2018-07-23T13:45:07.294Z,29.53
2018-07-23T13:47:36.443Z,29.71
2018-07-23T13:50:07.000Z,29.61
2018-07-23T13:52:36.091Z,29.77
2018-07-23T13:55:07.345Z,29.77
2018-07-23T13:57:37.532Z,29.59
2018-07-23T14:00:08.225Z,29.80
2018-07-23T14:02:37.471Z,29.71
2018-07-23T14:05:07.738Z,29.53
2018-07-23T14:07:36.954Z,29.28
2018-07-23T14:10:07.173Z,29.47
2018-07-23T14:12:36.471Z,29.66
2018-07-23T14:15:07.038Z,29.62
2018-07-23T14:17:36.824Z,29.01
2018-07-23T14:20:07.500Z,28.87
2018-07-23T14:22:36.689Z,28.85
2018-07-23T14:25:07.339Z,28.89
2018-07-23T14:27:36.422Z,28.93
2018-07-23T14:30:07.085Z,28.90
2018-07-23T14:32:36.286Z,28.89
2018-07-23T14:35:09.091Z,29.42
2018-07-23T14:37:39.830Z,29.42
2018-07-23T14:40:08.807Z,29.27
2018-07-23T14:42:37.784Z,29.22
2018-07-23T14:45:07.781Z,29.41
2018-07-23T14:47:37.430Z,29.41
2018-07-23T14:50:08.223Z,29.34
2018-07-23T14:52:38.492Z,29.22
2018-07-23T14:55:07.678Z,29.38
2018-07-23T14:57:37.103Z,29.56
2018-07-23T15:00:07.267Z,29.37
2018-07-23T15:02:36.327Z,29.13
2018-07-23T15:05:08.531Z,29.12
2018-07-23T15:07:37.583Z,29.53
2018-07-23T15:10:07.232Z,29.52
2018-07-23T15:12:36.954Z,29.96
2018-07-23T15:15:07.073Z,30.18
2018-07-23T15:17:36.339Z,30.44
2018-07-23T15:20:08.732Z,29.99
2018-07-23T15:22:37.791Z,30.62
2018-07-23T15:25:07.039Z,29.73
2018-07-23T15:27:36.930Z,30.07
2018-07-23T15:30:07.634Z,30.04
2018-07-23T15:32:36.587Z,29.98
2018-07-23T15:35:07.495Z,29.46
2018-07-23T15:37:36.579Z,29.64
2018-07-23T15:40:06.861Z,29.26
2018-07-23T15:42:36.137Z,29.50
2018-07-23T15:45:07.390Z,29.47
2018-07-23T15:47:36.562Z,29.57
2018-07-23T15:50:07.093Z,29.60
2018-07-23T15:52:36.286Z,29.37
2018-07-23T15:55:08.722Z,29.66
2018-07-23T15:57:37.999Z,29.49
2018-07-23T16:00:07.458Z,29.77
2018-07-23T16:02:36.549Z,29.48
2018-07-23T16:05:07.522Z,29.20
2018-07-23T16:07:36.454Z,29.31
2018-07-23T16:10:07.526Z,28.97
2018-07-23T16:12:37.437Z,29.18
2018-07-23T16:15:08.930Z,29.21
2018-07-23T16:17:38.634Z,29.41
2018-07-23T16:20:08.130Z,29.42
2018-07-23T16:22:38.233Z,29.41
2018-07-23T16:25:08.272Z,29.35
2018-07-23T16:27:37.426Z,29.41
2018-07-23T16:30:08.711Z,29.16
2018-07-23T16:32:38.678Z,28.98
2018-07-23T16:35:10.502Z,28.98
2018-07-23T16:37:39.458Z,28.88
2018-07-23T16:40:09.283Z,29.17
2018-07-23T16:42:38.880Z,28.78
2018-07-23T16:45:08.146Z,29.16
2018-07-23T16:47:37.123Z,29.14
2018-07-23T16:50:07.690Z,29.27
2018-07-23T16:52:37.202Z,29.21
2018-07-23T16:55:07.310Z,29.24
2018-07-23T16:57:36.258Z,28.96
2018-07-23T17:00:09.167Z,28.97
2018-07-23T17:02:38.114Z,28.98
2018-07-23T17:05:08.017Z,29.28
2018-07-23T17:07:37.113Z,29.33
2018-07-23T17:10:07.119Z,29.46
2018-07-23T17:12:36.236Z,29.24
2018-07-23T17:15:07.365Z,29.10
2018-07-23T17:17:36.649Z,29.05
2018-07-23T17:20:08.357Z,29.01
2018-07-23T17:22:38.306Z,28.68
2018-07-23T17:25:07.938Z,28.46
2018-07-23T17:27:37.214Z,28.43
2018-07-23T17:30:08.551Z,28.44
2018-07-23T17:32:38.032Z,28.56
2018-07-23T17:35:07.394Z,28.76
2018-07-23T17:37:37.300Z,28.88
2018-07-23T17:40:07.021Z,28.69
2018-07-23T17:42:36.607Z,28.62
2018-07-23T17:45:08.867Z,28.44
2018-07-23T17:47:38.054Z,28.47
2018-07-23T17:50:07.323Z,28.38
2018-07-23T17:52:36.792Z,28.37
2018-07-23T17:55:10.659Z,28.31
2018-07-23T17:57:39.858Z,28.30
2018-07-23T18:00:09.468Z,28.28
2018-07-23T18:02:39.181Z,28.15
2018-07-23T18:05:08.558Z,28.25
2018-07-23T18:07:37.744Z,28.26
2018-07-23T18:10:06.949Z,28.25
2018-07-23T18:12:36.082Z,28.34
2018-07-23T18:15:08.284Z,28.34
2018-07-23T18:17:37.733Z,28.30
2018-07-23T18:20:08.854Z,28.21
2018-07-23T18:22:37.790Z,28.14
2018-07-23T18:25:07.310Z,27.97
2018-07-23T18:27:36.381Z,27.89
2018-07-23T18:30:08.752Z,27.67
2018-07-23T18:32:38.159Z,27.61
2018-07-23T18:35:08.187Z,27.57
2018-07-23T18:37:37.387Z,27.49
2018-07-23T18:40:08.023Z,27.34
2018-07-23T18:42:37.770Z,27.12
2018-07-23T18:45:07.556Z,26.96
2018-07-23T18:47:37.018Z,26.85
2018-07-23T18:50:07.852Z,26.77
2018-07-23T18:52:37.200Z,26.72
2018-07-23T18:55:07.948Z,26.64
2018-07-23T18:57:37.213Z,26.61
2018-07-23T19:00:07.646Z,26.55
2018-07-23T19:02:37.575Z,26.51
2018-07-23T19:05:07.759Z,26.44
2018-07-23T19:07:36.742Z,26.33
2018-07-23T19:10:09.742Z,26.27
2018-07-23T19:12:38.969Z,26.11
2018-07-23T19:15:08.387Z,26.05
2018-07-23T19:17:37.394Z,25.95
2018-07-23T19:20:07.487Z,25.89
2018-07-23T19:22:36.783Z,25.83
2018-07-23T19:25:07.427Z,25.70
2018-07-23T19:27:36.809Z,25.69
2018-07-23T19:30:07.655Z,25.56
2018-07-23T19:32:36.957Z,25.42
2018-07-23T19:35:09.892Z,25.35
2018-07-23T19:37:39.180Z,25.26
2018-07-23T19:40:08.750Z,25.18
2018-07-23T19:42:37.828Z,25.06
2018-07-23T19:45:07.742Z,25.05
2018-07-23T19:47:36.873Z,24.95
2018-07-23T19:50:07.277Z,24.86
2018-07-23T19:52:37.209Z,24.83
2018-07-23T19:55:07.908Z,24.75
2018-07-23T19:57:38.948Z,24.68
2018-07-23T20:00:08.589Z,24.56
2018-07-23T20:02:37.660Z,24.53
2018-07-23T20:05:07.164Z,24.34
2018-07-23T20:07:36.752Z,24.23
2018-07-23T20:10:08.935Z,24.25
2018-07-23T20:12:38.050Z,24.10
2018-07-23T20:15:07.226Z,24.06
2018-07-23T20:17:36.360Z,23.94
2018-07-23T20:20:08.344Z,24.04
2018-07-23T20:22:37.319Z,23.92
2018-07-23T20:25:07.472Z,24.03
2018-07-23T20:27:36.433Z,23.98
2018-07-23T20:30:08.983Z,23.76
2018-07-23T20:32:38.192Z,23.79
2018-07-23T20:35:07.508Z,23.74
2018-07-23T20:37:36.749Z,23.59
2018-07-23T20:40:09.232Z,23.55
2018-07-23T20:42:38.591Z,23.50
2018-07-23T20:45:08.157Z,23.66
2018-07-23T20:47:37.447Z,23.57
2018-07-23T20:50:08.336Z,23.62
2018-07-23T20:52:38.276Z,23.67
2018-07-23T20:55:07.252Z,23.55
2018-07-23T20:57:36.446Z,23.54
2018-07-23T21:00:09.222Z,23.50
2018-07-23T21:02:39.296Z,23.49
2018-07-23T21:05:08.256Z,23.46
2018-07-23T21:07:37.518Z,23.35
2018-07-23T21:10:07.917Z,23.21
2018-07-23T21:12:37.301Z,23.16
2018-07-23T21:15:08.993Z,23.16
2018-07-23T21:17:38.682Z,23.30
2018-07-23T21:20:09.340Z,23.14
2018-07-23T21:22:39.101Z,23.12
2018-07-23T21:25:08.919Z,23.08
2018-07-23T21:27:39.390Z,23.09
2018-07-23T21:30:08.462Z,23.10
2018-07-23T21:32:37.558Z,23.02
2018-07-23T21:35:07.901Z,23.07
2018-07-23T21:37:37.719Z,23.10
2018-07-23T21:40:08.956Z,23.01
2018-07-23T21:42:38.199Z,23.07
2018-07-23T21:45:08.210Z,23.15
2018-07-23T21:47:38.372Z,23.02
2018-07-23T21:50:08.500Z,23.07
2018-07-23T21:52:37.783Z,22.93
2018-07-23T21:55:08.447Z,22.93
2018-07-23T21:57:37.691Z,22.85
2018-07-23T22:00:12.444Z,22.68
2018-07-23T22:02:41.692Z,22.81
2018-07-23T22:05:12.481Z,22.73
2018-07-23T22:07:42.457Z,22.65
2018-07-23T22:10:11.940Z,22.66
2018-07-23T22:12:41.987Z,22.66
2018-07-23T22:15:12.296Z,22.51
2018-07-23T22:17:41.595Z,22.55
2018-07-23T22:20:11.092Z,22.41
2018-07-23T22:22:40.315Z,22.26
2018-07-23T22:25:09.704Z,22.17
2018-07-23T22:27:38.947Z,22.17
2018-07-23T22:30:08.441Z,22.16
2018-07-23T22:32:37.526Z,22.07
2018-07-23T22:35:08.449Z,22.12
2018-07-23T22:37:37.452Z,22.27
2018-07-23T22:40:07.631Z,22.20
2018-07-23T22:42:36.886Z,22.19
2018-07-23T22:45:07.434Z,22.18
2018-07-23T22:47:36.773Z,22.15
2018-07-23T22:50:09.264Z,22.04
2018-07-23T22:52:38.253Z,22.00
2018-07-23T22:55:07.610Z,22.00
2018-07-23T22:57:37.478Z,21.98
2018-07-23T23:00:09.005Z,21.86
2018-07-23T23:02:38.145Z,21.67
2018-07-23T23:05:07.314Z,21.67
2018-07-23T23:07:36.530Z,21.51
2018-07-23T23:10:07.465Z,21.48
2018-07-23T23:12:36.831Z,21.50
2018-07-23T23:15:07.638Z,21.39
2018-07-23T23:17:37.755Z,21.31
2018-07-23T23:20:08.390Z,21.27
2018-07-23T23:22:37.904Z,21.33
2018-07-23T23:25:07.808Z,21.43
2018-07-23T23:27:37.939Z,21.41
2018-07-23T23:30:08.044Z,21.27
2018-07-23T23:32:37.055Z,21.40
2018-07-23T23:35:09.441Z,21.44
2018-07-23T23:37:38.487Z,21.42
2018-07-23T23:40:07.500Z,21.28
2018-07-23T23:42:36.779Z,21.27
2018-07-23T23:45:07.538Z,21.21
2018-07-23T23:47:36.886Z,21.25
2018-07-23T23:50:08.550Z,21.11
2018-07-23T23:52:49.288Z,21.03
2018-07-23T23:55:18.780Z,21.16
2018-07-23T23:57:47.795Z,21.19
